createdAt,value
2023-02-03T00:03:54.431Z,19.354598
2023-02-03T00:08:56.155Z,18.371062
2023-02-03T00:13:57.898Z,18.652658
2023-02-03T00:18:59.361Z,18.75637
2023-02-03T00:24:00.889Z,18.490854
2023-02-03T00:29:02.586Z,18.66122
2023-02-03T00:34:04.329Z,19.22087
2023-02-03T00:39:05.814Z,18.58865
2023-02-03T00:44:07.568Z,18.209964
2023-02-03T00:49:09.239Z,18.489348
2023-02-03T00:54:11.042Z,19.133292
2023-02-03T00:59:12.848Z,18.470554
2023-02-03T01:04:14.426Z,18.191428
2023-02-03T01:09:15.942Z,18.847924
2023-02-03T01:14:17.428Z,17.949822
2023-02-03T01:19:19.117Z,17.60141
2023-02-03T01:24:20.910Z,17.652174
2023-02-03T01:29:22.607Z,18.233616
2023-02-03T01:34:24.443Z,18.40443
2023-02-03T01:39:26.156Z,18.157708
2023-02-03T01:44:27.713Z,18.249696
2023-02-03T01:49:29.303Z,18.285438
2023-02-03T01:54:30.803Z,18.015594
2023-02-03T01:59:32.465Z,17.908082
2023-02-03T02:04:33.956Z,17.901894
2023-02-03T02:09:35.667Z,17.833748
2023-02-03T02:14:37.176Z,17.624546
2023-02-03T02:19:38.935Z,17.664088
2023-02-03T02:24:40.454Z,17.328214
2023-02-03T02:29:42.080Z,18.259914
2023-02-03T02:34:43.536Z,18.10959
2023-02-03T02:39:45.463Z,18.714956
2023-02-03T02:44:47.139Z,17.928192
2023-02-03T02:49:48.626Z,17.821576
2023-02-03T02:54:50.309Z,17.691892
2023-02-03T02:59:52.076Z,17.996868
2023-02-03T03:04:53.602Z,17.217432
2023-02-03T03:09:55.801Z,17.414462
2023-02-03T03:14:57.258Z,17.511824
2023-02-03T03:19:58.923Z,17.452674
2023-02-03T03:25:01.027Z,17.578274
2023-02-03T03:30:03.177Z,17.408722
2023-02-03T03:35:05.144Z,16.964794
2023-02-03T03:40:07.147Z,16.870784
2023-02-03T03:45:09.037Z,16.011302
2023-02-03T03:50:11.030Z,16.823386
2023-02-03T03:55:13.082Z,16.444348
2023-02-03T04:00:15.068Z,16.328722
2023-02-03T04:05:16.553Z,16.77554
2023-02-03T04:10:18.512Z,16.659208
2023-02-03T04:15:20.548Z,16.505438
2023-02-03T04:20:22.309Z,16.54137
2023-02-03T04:25:24.276Z,17.06392
2023-02-03T04:30:26.818Z,17.144768
2023-02-03T04:35:28.573Z,16.511178
2023-02-03T04:40:30.392Z,17.40244
2023-02-03T04:45:32.388Z,16.875114
2023-02-03T04:50:34.210Z,16.689034
2023-02-03T04:55:36.391Z,17.274086
2023-02-03T05:00:38.434Z,17.019874
2023-02-03T05:05:40.102Z,16.63192
2023-02-03T05:10:41.794Z,16.68012
2023-02-03T05:15:43.641Z,16.169036
2023-02-03T05:20:45.394Z,17.499978
2023-02-03T05:25:46.881Z,16.935932
2023-02-03T05:30:48.800Z,17.751368
2023-02-03T05:35:50.281Z,16.921006
2023-02-03T05:40:51.792Z,17.062238
2023-02-03T05:45:53.423Z,18.74276
2023-02-03T05:50:55.205Z,19.77018
2023-02-03T05:55:56.731Z,20.640112
2023-02-03T06:00:58.576Z,20.756132
2023-02-03T06:06:00.396Z,22.058812
2023-02-03T06:11:02.430Z,22.213044
2023-02-03T06:16:04.245Z,22.766534
2023-02-03T06:21:05.922Z,22.529962
2023-02-03T06:26:07.758Z,23.531642
2023-02-03T06:31:09.771Z,23.775922
2023-02-03T06:36:11.590Z,23.331396
2023-02-03T06:41:13.661Z,23.781214
2023-02-03T06:46:15.273Z,24.042022
2023-02-03T06:51:16.736Z,24.337364
2023-02-03T06:56:18.443Z,24.92657
2023-02-03T07:01:20.525Z,24.515194
2023-02-03T07:06:22.315Z,24.346348
2023-02-03T07:11:24.312Z,25.690336
2023-02-03T07:16:26.246Z,24.855466
2023-02-03T07:21:28.144Z,26.003088
2023-02-03T07:26:29.972Z,27.289718
2023-02-03T07:31:32.531Z,26.028924
2023-02-03T07:36:34.408Z,25.864448
2023-02-03T07:41:36.198Z,24.736528
2023-02-03T07:46:38.338Z,25.529508
2023-02-03T07:51:40.244Z,26.199916
2023-02-03T07:56:42.014Z,24.638786
2023-02-03T08:01:44.202Z,24.635408
2023-02-03T08:06:46.067Z,28.36895
2023-02-03T08:11:47.636Z,28.350184
2023-02-03T08:16:49.095Z,26.561858
2023-02-03T08:21:50.579Z,25.92319
2023-02-03T08:26:52.504Z,24.270222
2023-02-03T08:31:54.334Z,24.070722
2023-02-03T08:36:56.074Z,26.07768
2023-02-03T08:41:57.918Z,26.478432
2023-02-03T08:46:59.507Z,28.460098
2023-02-03T08:52:01.121Z,27.907692
2023-02-03T08:57:02.699Z,29.595604
2023-02-03T09:02:04.378Z,26.65941
2023-02-03T09:07:05.825Z,27.60247
2023-02-03T09:12:07.652Z,26.46478
2023-02-03T09:17:09.635Z,27.57928
2023-02-03T09:22:11.315Z,28.467602
2023-02-03T09:27:13.370Z,29.937682
2023-02-03T09:32:15.944Z,29.096786
2023-02-03T09:37:17.694Z,29.227
2023-02-03T09:42:19.546Z,28.691366
2023-02-03T09:47:21.332Z,29.435348
2023-02-03T09:52:23.232Z,29.671948
2023-02-03T09:57:25.053Z,29.557202
2023-02-03T10:02:27.031Z,28.388112
2023-02-03T10:07:28.791Z,26.150034
2023-02-03T10:12:30.817Z,30.397624
2023-02-03T10:17:32.630Z,31.047598
2023-02-03T10:22:34.427Z,29.259688
2023-02-03T10:27:36.442Z,30.231654
2023-02-03T10:32:38.660Z,28.91802
2023-02-03T10:37:40.580Z,29.526508
2023-02-03T10:42:42.471Z,30.893336
2023-02-03T10:47:44.238Z,27.845014
2023-02-03T10:52:46.075Z,28.14181
2023-02-03T10:57:47.787Z,28.986464
2023-02-03T11:02:50.424Z,29.127236
2023-02-03T11:07:51.919Z,28.371814
2023-02-03T11:12:53.519Z,28.284182
2023-02-03T11:17:55.214Z,29.446354
2023-02-03T11:22:56.772Z,29.310004
2023-02-03T11:27:58.747Z,29.311756
2023-02-03T11:33:00.451Z,29.507294
2023-02-03T11:38:02.328Z,29.1374
2023-02-03T11:43:04.124Z,28.632446
2023-02-03T11:48:05.641Z,30.58612
2023-02-03T11:53:07.229Z,30.212006
2023-02-03T11:58:08.724Z,29.438876
2023-02-03T12:03:11.518Z,28.262986
2023-02-03T12:08:13.116Z,30.729348
2023-02-03T12:13:14.753Z,31.206728
2023-02-03T12:18:16.310Z,28.245754
2023-02-03T12:23:17.794Z,31.033036
2023-02-03T12:28:32.443Z,31.410462
2023-02-03T12:33:36.040Z,30.684758
2023-02-03T12:38:37.812Z,30.188816
2023-02-03T12:43:39.537Z,29.374856
2023-02-03T12:48:41.723Z,30.62318
2023-02-03T12:53:43.610Z,30.41175
2023-02-03T12:58:45.454Z,30.031692
2023-02-03T13:03:48.258Z,30.518584
2023-02-03T13:08:49.986Z,28.663766
2023-02-03T13:13:51.585Z,30.824458
2023-02-03T13:18:53.157Z,30.416148
2023-02-03T13:23:54.650Z,30.931956
2023-02-03T13:28:56.438Z,31.769108
2023-02-03T13:33:58.147Z,30.225032
2023-02-03T13:38:59.747Z,31.156412
2023-02-03T13:44:01.466Z,30.1182
2023-02-03T13:49:03.308Z,29.914466
2023-02-03T13:54:05.105Z,31.103872
2023-02-03T13:59:06.591Z,32.010554
2023-02-03T14:04:08.598Z,31.756746
2023-02-03T14:09:10.153Z,31.64572
2023-02-03T14:14:12.174Z,30.33051
2023-02-03T14:19:13.929Z,31.184652
2023-02-03T14:24:15.831Z,30.29565
2023-02-03T14:29:17.616Z,30.16146
2023-02-03T14:34:19.987Z,29.058818
2023-02-03T14:39:21.852Z,28.516792
2023-02-03T14:44:23.885Z,28.861976
2023-02-03T14:49:26.139Z,28.793124
2023-02-03T14:54:27.940Z,28.757776
2023-02-03T14:59:29.912Z,28.820672
2023-02-03T15:04:31.940Z,28.955974
2023-02-03T15:09:33.857Z,27.805934
2023-02-03T15:14:36.655Z,28.745454
2023-02-03T15:19:38.438Z,28.326112
2023-02-03T15:24:40.533Z,27.47903
2023-02-03T15:29:42.483Z,27.262322
2023-02-03T15:34:45.306Z,27.549468
2023-02-03T15:39:47.426Z,27.203212
2023-02-03T15:44:49.169Z,27.358084
2023-02-03T15:49:50.606Z,27.656288
2023-02-03T15:54:52.110Z,27.505096
2023-02-03T15:59:53.863Z,27.11136
2023-02-03T16:04:55.564Z,26.34754
2023-02-03T16:09:57.026Z,26.299462
2023-02-03T16:14:58.603Z,25.91718
2023-02-03T16:20:00.136Z,26.05445
2023-02-03T16:25:01.833Z,26.162152
2023-02-03T16:30:04.200Z,25.323292
2023-02-03T16:35:06.381Z,25.935078
2023-02-03T16:40:08.571Z,26.063514
2023-02-03T16:45:10.515Z,25.611972
2023-02-03T16:50:12.330Z,25.425254
2023-02-03T16:55:14.438Z,25.517066
2023-02-03T17:00:16.460Z,25.171462
2023-02-03T17:05:18.453Z,25.671122
2023-02-03T17:10:20.177Z,25.424412
2023-02-03T17:15:21.966Z,25.44668
2023-02-03T17:20:24.122Z,24.375632
2023-02-03T17:25:26.001Z,24.652464
2023-02-03T17:30:27.625Z,24.888372
2023-02-03T17:35:30.610Z,24.160322
2023-02-03T17:54:53.034Z,23.964988
2023-02-03T17:59:54.686Z,23.057466
2023-02-03T18:04:56.457Z,21.886994
2023-02-03T18:09:58.263Z,21.69915
2023-02-03T18:14:59.797Z,21.953132
2023-02-03T18:20:01.666Z,22.10408
2023-02-03T18:25:03.316Z,21.860886
2023-02-03T18:30:04.872Z,21.839894
2023-02-03T18:35:06.551Z,21.577974
2023-02-03T18:40:08.264Z,21.37846
2023-02-03T18:45:10.136Z,21.273418
2023-02-03T18:50:12.037Z,21.288928
2023-02-03T18:55:13.829Z,20.66219
2023-02-03T19:00:15.730Z,20.961182
2023-02-03T19:05:17.585Z,20.540362
2023-02-03T19:10:19.798Z,20.7562
2023-02-03T19:15:21.310Z,19.959082
2023-02-03T19:20:22.770Z,19.805054
2023-02-03T19:25:24.272Z,20.61912
2023-02-03T19:30:25.863Z,20.362058
2023-02-03T19:35:27.876Z,20.649828
2023-02-03T19:40:30.288Z,20.647562
2023-02-03T19:45:32.317Z,19.519496
2023-02-03T19:50:34.148Z,19.582608
2023-02-03T19:55:35.823Z,18.939532
2023-02-03T20:00:37.625Z,19.25474
2023-02-03T20:05:39.458Z,18.789358
2023-02-03T20:10:41.434Z,18.87562
2023-02-03T20:15:43.269Z,18.67365
2023-02-03T20:20:45.169Z,18.97598
2023-02-03T20:25:46.772Z,18.917536
2023-02-03T20:30:48.601Z,18.81761
2023-02-03T20:35:50.511Z,19.513756
2023-02-03T20:40:52.739Z,19.525996
2023-02-03T20:45:54.312Z,18.759722
2023-02-03T20:50:55.882Z,19.070072
2023-02-03T20:55:57.398Z,18.25408
2023-02-03T21:00:59.097Z,18.295738
2023-02-03T21:06:00.722Z,18.211186
2023-02-03T21:11:02.378Z,18.0718
2023-02-03T21:16:04.157Z,17.995702
2023-02-03T21:21:05.756Z,18.089888
2023-02-03T21:26:07.430Z,17.901244
2023-02-03T21:31:09.248Z,17.783324
2023-02-03T21:36:11.317Z,17.752698
2023-02-03T21:41:13.378Z,18.030494
2023-02-03T21:46:15.334Z,18.007358
2023-02-03T21:51:17.413Z,17.36872
2023-02-03T21:56:19.388Z,17.71245
2023-02-03T22:01:21.569Z,17.527348
2023-02-03T22:06:23.488Z,18.45959
2023-02-03T22:11:26.015Z,18.29567
2023-02-03T22:16:28.088Z,18.317042
2023-02-03T22:21:30.035Z,18.677884
2023-02-03T22:26:32.333Z,18.59226
2023-02-03T22:31:35.280Z,18.083116
2023-02-03T22:36:37.362Z,18.31483
2023-02-03T22:41:39.672Z,18.044714
2023-02-03T22:46:41.541Z,17.792076
2023-02-03T22:51:43.447Z,17.966852
2023-02-03T22:56:45.285Z,17.418696
2023-02-03T23:01:47.120Z,17.874172
2023-02-03T23:06:49.117Z,17.706982
2023-02-03T23:11:51.212Z,17.3117
2023-02-03T23:16:52.718Z,16.918712
2023-02-03T23:21:54.197Z,17.080868
2023-02-03T23:26:55.645Z,17.047596
2023-02-03T23:31:57.202Z,17.042304
2023-02-03T23:36:58.876Z,16.993752
2023-02-03T23:42:01.399Z,16.831596
2023-02-03T23:47:03.095Z,16.728942
2023-02-03T23:52:05.231Z,16.733786
2023-02-03T23:57:06.714Z,17.272416
